Time;durP1;ratioP1;P1;durP2;ratioP2;P2;SDS_P1;SDS_P2;PMS_P1;PMS_P2;Temp;Humidity;BMP_temperature;BMP_pressure;BME280_temperature;BME280_humidity;BME280_pressure;Samples;Min_cycle;Max_cycle;Signal;HPM_P1;HPM_P2
2023/12/08 06:00:20;;;;;;;7.30;6.70;;;;;;;;;;1750747;28;20178;-79
2023/12/08 06:01:12;;;;;;;7.47;6.82;;;;;;;;;;1748127;28;20218;-79
2023/12/08 06:02:04;;;;;;;6.88;6.18;;;;;;;;;;1744667;28;20199;-79
2023/12/08 06:02:55;;;;;;;7.70;6.13;;;;;;;;;;1743061;28;20199;-79
2023/12/08 06:03:46;;;;;;;6.95;6.25;;;;;;;;;;1741676;28;20195;-78
2023/12/08 06:04:38;;;;;;;8.88;6.80;;;;;;;;;;1741381;28;20222;-78
2023/12/08 06:05:30;;;;;;;6.90;6.20;;;;;;;;;;1741473;28;20203;-78
2023/12/08 06:06:22;;;;;;;8.07;7.28;;;;;;;;;;1741316;28;20541;-79
2023/12/08 06:07:13;;;;;;;7.32;6.55;;;;;;;;;;1741525;28;20214;-79
2023/12/08 06:08:04;;;;;;;6.68;6.07;;;;;;;;;;1741424;28;20581;-78
2023/12/08 06:08:56;;;;;;;6.82;6.22;;;;;;;;;;1741534;28;20242;-78
2023/12/08 06:09:47;;;;;;;7.13;6.43;;;;;;;;;;1747097;28;20194;-79
2023/12/08 06:10:38;;;;;;;7.47;6.78;;;;;;;;;;1745369;28;20620;-76
2023/12/08 06:11:30;;;;;;;8.30;7.47;;;;;;;;;;1742404;28;20209;-76
2023/12/08 06:12:22;;;;;;;7.75;6.95;;;;;;;;;;1745792;28;20598;-77
2023/12/08 06:13:13;;;;;;;10.05;6.93;;;;;;;;;;1740311;28;20199;-78
2023/12/08 06:14:06;;;;;;;7.38;6.68;;;;;;;;;;1740272;28;20202;-78
2023/12/08 06:14:59;;;;;;;8.15;7.45;;;;;;;;;;1740550;28;20202;-77
2023/12/08 06:15:51;;;;;;;7.13;6.43;;;;;;;;;;1740957;28;20210;-78
2023/12/08 06:16:44;;;;;;;6.85;6.25;;;;;;;;;;1742697;28;20211;-78
2023/12/08 06:17:35;;;;;;;7.22;6.53;;;;;;;;;;1747530;28;20355;-77
2023/12/08 06:18:26;;;;;;;7.45;6.68;;;;;;;;;;1741422;28;20229;-75
2023/12/08 06:19:18;;;;;;;7.80;7.10;;;;;;;;;;1740177;28;20625;-76
2023/12/08 06:20:10;;;;;;;7.97;7.18;;;;;;;;;;1739557;28;20226;-78
2023/12/08 06:21:01;;;;;;;8.02;7.07;;;;;;;;;;1739264;28;20195;-77
2023/12/08 06:21:53;;;;;;;7.70;6.90;;;;;;;;;;1737949;28;20187;-79
2023/12/08 06:22:44;;;;;;;9.75;7.75;;;;;;;;;;1740765;28;20203;-78
2023/12/08 06:23:36;;;;;;;8.75;7.80;;;;;;;;;;1736952;28;20274;-77
2023/12/08 06:24:27;;;;;;;9.35;8.27;;;;;;;;;;1733467;28;20200;-77
2023/12/08 06:25:20;;;;;;;8.50;7.38;;;;;;;;;;1736485;28;20335;-78
2023/12/08 06:26:11;;;;;;;8.60;7.80;;;;;;;;;;1740304;28;20252;-78
2023/12/08 06:27:02;;;;;;;8.82;8.02;;;;;;;;;;1735205;28;20203;-77
2023/12/08 06:27:55;;;;;;;8.00;7.20;;;;;;;;;;1737160;28;20229;-76
2023/12/08 06:28:46;;;;;;;8.95;8.05;;;;;;;;;;1740614;28;20207;-77
2023/12/08 06:29:38;;;;;;;8.52;7.72;;;;;;;;;;1740527;28;20203;-77
2023/12/08 06:30:29;;;;;;;8.20;7.35;;;;;;;;;;1740378;28;20207;-77
2023/12/08 06:31:23;;;;;;;7.80;6.97;;;;;;;;;;1739244;28;20233;-78
2023/12/08 06:32:14;;;;;;;8.35;7.55;;;;;;;;;;1740223;28;20687;-76
2023/12/08 06:33:05;;;;;;;9.05;8.23;;;;;;;;;;1735393;28;20313;-77
2023/12/08 06:33:57;;;;;;;8.48;7.30;;;;;;;;;;1739973;28;20202;-77
2023/12/08 06:34:48;;;;;;;8.05;7.25;;;;;;;;;;1740778;28;20207;-77
2023/12/08 06:35:40;;;;;;;7.45;6.75;;;;;;;;;;1743163;28;20210;-78
2023/12/08 06:36:31;;;;;;;7.70;6.70;;;;;;;;;;1746687;28;20209;-79
2023/12/08 06:37:23;;;;;;;8.30;7.43;;;;;;;;;;1742586;28;20656;-77
2023/12/08 06:38:14;;;;;;;9.10;6.90;;;;;;;;;;1740730;28;20227;-76
2023/12/08 06:39:05;;;;;;;10.40;8.43;;;;;;;;;;1740692;28;20226;-78
2023/12/08 06:39:58;;;;;;;7.57;6.85;;;;;;;;;;1740704;28;20575;-77
2023/12/08 06:40:49;;;;;;;6.80;6.20;;;;;;;;;;1740819;28;20191;-78
2023/12/08 06:41:41;;;;;;;7.20;6.50;;;;;;;;;;1740897;28;20248;-77
2023/12/08 06:42:33;;;;;;;6.57;5.95;;;;;;;;;;1740568;28;20209;-77
2023/12/08 06:43:24;;;;;;;7.40;6.35;;;;;;;;;;1740711;28;20206;-77
2023/12/08 06:44:15;;;;;;;7.57;6.30;;;;;;;;;;1740983;28;20626;-78
2023/12/08 06:45:08;;;;;;;7.47;6.78;;;;;;;;;;1740867;28;20209;-77
2023/12/08 06:46:01;;;;;;;8.00;6.20;;;;;;;;;;1741008;28;20298;-79
2023/12/08 06:46:53;;;;;;;6.57;5.97;;;;;;;;;;1740603;28;20568;-78
2023/12/08 06:47:45;;;;;;;7.03;6.32;;;;;;;;;;1740983;28;20203;-78
2023/12/08 06:48:36;;;;;;;6.78;6.10;;;;;;;;;;1740838;28;20238;-78
2023/12/08 06:49:29;;;;;;;6.65;6.05;;;;;;;;;;1740843;28;20207;-77
2023/12/08 06:50:20;;;;;;;6.47;5.88;;;;;;;;;;1740856;28;20214;-79
2023/12/08 06:51:12;;;;;;;7.10;6.50;;;;;;;;;;1741025;28;20214;-78
2023/12/08 06:52:03;;;;;;;7.75;6.90;;;;;;;;;;1740929;28;20196;-78
2023/12/08 06:52:54;;;;;;;6.95;6.35;;;;;;;;;;1740430;28;20265;-75
2023/12/08 06:53:46;;;;;;;8.68;7.65;;;;;;;;;;1740540;28;20187;-79
2023/12/08 06:54:37;;;;;;;7.82;7.10;;;;;;;;;;1740956;28;20208;-78
2023/12/08 06:55:28;;;;;;;7.95;7.13;;;;;;;;;;1740846;28;20260;-77
2023/12/08 06:56:21;;;;;;;7.70;6.90;;;;;;;;;;1740897;28;20598;-77
2023/12/08 06:57:13;;;;;;;8.30;7.50;;;;;;;;;;1740588;28;20203;-77
2023/12/08 06:58:05;;;;;;;8.77;7.88;;;;;;;;;;1740696;28;20206;-77
2023/12/08 06:58:56;;;;;;;7.88;7.07;;;;;;;;;;1740889;28;20206;-76
2023/12/08 06:59:47;;;;;;;7.45;6.75;;;;;;;;;;1740827;28;20199;-78
2023/12/08 07:00:40;;;;;;;7.57;6.85;;;;;;;;;;1740882;28;20234;-77
2023/12/08 07:01:31;;;;;;;7.43;6.70;;;;;;;;;;1740862;28;20199;-78
2023/12/08 07:02:25;;;;;;;7.78;6.97;;;;;;;;;;1740436;28;20218;-77
2023/12/08 07:03:16;;;;;;;7.43;6.80;;;;;;;;;;1740738;28;20210;-77
2023/12/08 07:04:07;;;;;;;7.45;6.75;;;;;;;;;;1740650;28;20199;-78
2023/12/08 07:04:59;;;;;;;7.10;6.40;;;;;;;;;;1740959;28;20274;-77
2023/12/08 07:05:50;;;;;;;7.63;6.90;;;;;;;;;;1740858;28;20207;-77
2023/12/08 07:06:41;;;;;;;8.35;7.50;;;;;;;;;;1740068;28;20203;-78
2023/12/08 07:07:33;;;;;;;7.90;7.00;;;;;;;;;;1739843;28;20222;-78
2023/12/08 07:08:24;;;;;;;7.85;7.03;;;;;;;;;;1740280;28;20222;-77
2023/12/08 07:09:15;;;;;;;7.53;6.82;;;;;;;;;;1734689;28;20200;-76
2023/12/08 07:10:08;;;;;;;8.43;7.50;;;;;;;;;;1740331;28;20199;-76
2023/12/08 07:10:59;;;;;;;7.97;7.28;;;;;;;;;;1740178;28;20203;-78
2023/12/08 07:11:50;;;;;;;7.80;7.00;;;;;;;;;;1739824;28;20195;-76
2023/12/08 07:12:43;;;;;;;8.13;7.32;;;;;;;;;;1738848;28;20309;-78
2023/12/08 07:13:34;;;;;;;7.57;6.88;;;;;;;;;;1739191;28;20214;-77
2023/12/08 07:14:25;;;;;;;7.68;6.97;;;;;;;;;;1739952;28;20288;-78
2023/12/08 07:15:17;;;;;;;8.00;7.20;;;;;;;;;;1741328;28;20245;-77
2023/12/08 07:16:09;;;;;;;7.20;6.50;;;;;;;;;;1741653;28;20203;-76
2023/12/08 07:17:00;;;;;;;7.53;6.82;;;;;;;;;;1741309;28;20222;-76
2023/12/08 07:17:53;;;;;;;7.28;6.55;;;;;;;;;;1741978;28;20659;-76
2023/12/08 07:18:45;;;;;;;7.25;6.47;;;;;;;;;;1742043;28;20583;-76
2023/12/08 07:19:38;;;;;;;10.07;7.47;;;;;;;;;;1742041;28;20203;-75
2023/12/08 07:20:30;;;;;;;6.82;6.10;;;;;;;;;;1741929;28;20870;-75
2023/12/08 07:21:21;;;;;;;8.20;7.40;;;;;;;;;;1742052;28;20774;-76
2023/12/08 07:22:12;;;;;;;6.75;5.95;;;;;;;;;;1742161;28;20229;-75
2023/12/08 07:23:04;;;;;;;7.32;6.60;;;;;;;;;;1741920;28;20203;-75
2023/12/08 07:23:56;;;;;;;6.40;5.82;;;;;;;;;;1742024;28;20210;-76
2023/12/08 07:24:47;;;;;;;7.00;6.40;;;;;;;;;;1742059;28;20195;-76
2023/12/08 07:25:39;;;;;;;7.20;6.32;;;;;;;;;;1742267;28;20191;-76
2023/12/08 07:26:30;;;;;;;7.35;6.70;;;;;;;;;;1741088;28;20199;-73
2023/12/08 07:27:21;;;;;;;6.88;6.18;;;;;;;;;;1742129;28;20829;-73
2023/12/08 07:28:13;;;;;;;6.75;6.13;;;;;;;;;;1741973;28;20219;-73
2023/12/08 07:29:04;;;;;;;7.28;6.57;;;;;;;;;;1742062;28;20676;-72
2023/12/08 07:29:55;;;;;;;6.97;6.38;;;;;;;;;;1735171;28;20631;-72
2023/12/08 07:30:47;;;;;;;7.40;6.60;;;;;;;;;;1738896;28;20285;-74
2023/12/08 07:31:38;;;;;;;7.63;6.60;;;;;;;;;;1742048;28;20207;-73
2023/12/08 07:32:30;;;;;;;6.72;6.13;;;;;;;;;;1741765;28;20227;-74
2023/12/08 07:33:23;;;;;;;6.47;5.85;;;;;;;;;;1742024;28;20203;-73
2023/12/08 07:34:14;;;;;;;6.60;6.00;;;;;;;;;;1741895;28;20286;-73
2023/12/08 07:35:06;;;;;;;6.80;6.20;;;;;;;;;;1742025;28;20202;-74
2023/12/08 07:35:57;;;;;;;6.40;5.90;;;;;;;;;;1741447;28;20203;-74
2023/12/08 07:36:50;;;;;;;6.47;5.85;;;;;;;;;;1740409;28;20202;-74
2023/12/08 07:37:41;;;;;;;7.38;5.13;;;;;;;;;;1741838;28;20215;-73
2023/12/08 07:38:33;;;;;;;6.40;5.80;;;;;;;;;;1741900;28;20314;-73
2023/12/08 07:39:25;;;;;;;5.90;5.30;;;;;;;;;;1741702;28;20241;-73
2023/12/08 07:40:16;;;;;;;5.90;5.30;;;;;;;;;;1741907;28;20210;-73
2023/12/08 07:41:08;;;;;;;8.82;5.85;;;;;;;;;;1741687;28;20187;-74
2023/12/08 07:41:59;;;;;;;6.57;5.95;;;;;;;;;;1741936;28;20199;-74
2023/12/08 07:42:50;;;;;;;8.43;6.00;;;;;;;;;;1741917;28;20644;-74
2023/12/08 07:43:42;;;;;;;5.85;5.35;;;;;;;;;;1741921;28;20199;-73
2023/12/08 07:44:34;;;;;;;6.05;5.45;;;;;;;;;;1741932;28;20203;-73
2023/12/08 07:45:26;;;;;;;5.65;5.15;;;;;;;;;;1741900;28;20301;-73
2023/12/08 07:46:18;;;;;;;5.25;4.82;;;;;;;;;;1741851;28;20211;-74
2023/12/08 07:47:10;;;;;;;6.40;5.80;;;;;;;;;;1740929;28;20199;-74
2023/12/08 07:48:01;;;;;;;6.00;5.40;;;;;;;;;;1741619;28;20226;-73
2023/12/08 07:48:54;;;;;;;6.03;5.43;;;;;;;;;;1741864;28;20203;-73
2023/12/08 07:49:45;;;;;;;5.60;5.10;;;;;;;;;;1741787;28;20214;-73
2023/12/08 07:50:36;;;;;;;6.00;5.40;;;;;;;;;;1741900;28;20195;-73
2023/12/08 07:51:28;;;;;;;7.35;5.50;;;;;;;;;;1741579;28;20223;-73
2023/12/08 07:52:19;;;;;;;7.00;6.03;;;;;;;;;;1741073;28;20226;-73
2023/12/08 07:53:11;;;;;;;8.10;6.55;;;;;;;;;;1741579;28;20278;-73
2023/12/08 07:54:03;;;;;;;9.38;6.40;;;;;;;;;;1741898;28;20207;-73
2023/12/08 07:54:54;;;;;;;6.45;5.82;;;;;;;;;;1741969;28;20248;-73
2023/12/08 07:55:46;;;;;;;8.30;6.15;;;;;;;;;;1741584;28;20203;-73
2023/12/08 07:56:37;;;;;;;6.00;5.38;;;;;;;;;;1741609;28;20207;-74
2023/12/08 07:57:29;;;;;;;6.75;5.72;;;;;;;;;;1741769;28;20249;-74
2023/12/08 07:58:21;;;;;;;5.88;5.25;;;;;;;;;;1741768;28;20239;-74
2023/12/08 07:59:13;;;;;;;6.43;5.00;;;;;;;;;;1741768;28;20198;-74
2023/12/08 08:00:05;;;;;;;5.50;4.80;;;;;;;;;;1741840;28;20203;-73
2023/12/08 08:00:57;;;;;;;5.90;5.40;;;;;;;;;;1741864;28;20735;-74
2023/12/08 08:01:49;;;;;;;5.75;5.18;;;;;;;;;;1741724;28;20199;-73
2023/12/08 08:02:40;;;;;;;7.38;5.10;;;;;;;;;;1741828;28;20226;-73
2023/12/08 08:03:32;;;;;;;5.38;4.88;;;;;;;;;;1741737;28;20295;-73
2023/12/08 08:04:25;;;;;;;5.95;5.35;;;;;;;;;;1741576;28;20192;-73
2023/12/08 08:05:16;;;;;;;5.28;4.63;;;;;;;;;;1741733;28;20214;-73
2023/12/08 08:06:08;;;;;;;5.20;4.70;;;;;;;;;;1741474;28;20195;-73
2023/12/08 08:07:00;;;;;;;6.40;5.20;;;;;;;;;;1741412;28;20207;-74
2023/12/08 08:07:52;;;;;;;5.30;4.80;;;;;;;;;;1741665;28;20199;-73
2023/12/08 08:08:43;;;;;;;5.07;4.57;;;;;;;;;;1741724;28;20214;-73
2023/12/08 08:09:34;;;;;;;5.18;4.75;;;;;;;;;;1741830;28;20727;-74
2023/12/08 08:10:26;;;;;;;5.18;4.78;;;;;;;;;;1741694;28;20257;-73
2023/12/08 08:11:17;;;;;;;5.93;5.10;;;;;;;;;;1741868;28;20278;-74
2023/12/08 08:12:09;;;;;;;5.32;4.80;;;;;;;;;;1741765;28;20199;-73
2023/12/08 08:13:01;;;;;;;5.43;4.75;;;;;;;;;;1741739;28;20219;-73
2023/12/08 08:13:52;;;;;;;5.60;5.10;;;;;;;;;;1741688;28;20336;-73
2023/12/08 08:14:44;;;;;;;5.20;4.80;;;;;;;;;;1741709;28;20766;-74
2023/12/08 08:15:35;;;;;;;7.32;5.07;;;;;;;;;;1741813;28;20211;-73
2023/12/08 08:16:26;;;;;;;5.38;4.85;;;;;;;;;;1741313;28;20215;-73
2023/12/08 08:17:18;;;;;;;6.97;4.90;;;;;;;;;;1741740;28;20565;-73
2023/12/08 08:18:09;;;;;;;5.05;4.65;;;;;;;;;;1741572;28;20745;-73
2023/12/08 08:19:01;;;;;;;5.18;4.68;;;;;;;;;;1741777;28;20218;-73
2023/12/08 08:19:54;;;;;;;5.25;4.75;;;;;;;;;;1741654;28;20203;-74
2023/12/08 08:20:46;;;;;;;5.70;5.05;;;;;;;;;;1741560;28;20211;-73
2023/12/08 08:21:37;;;;;;;5.60;5.05;;;;;;;;;;1741702;28;20210;-73
2023/12/08 08:22:30;;;;;;;5.20;4.80;;;;;;;;;;1741585;28;20280;-73
2023/12/08 08:23:21;;;;;;;5.05;4.65;;;;;;;;;;1741661;28;20590;-74
2023/12/08 08:24:12;;;;;;;5.55;5.05;;;;;;;;;;1741676;28;20260;-74
2023/12/08 08:25:04;;;;;;;5.15;4.65;;;;;;;;;;1741793;28;20227;-73
2023/12/08 08:25:55;;;;;;;5.65;5.05;;;;;;;;;;1741582;28;20210;-73
2023/12/08 08:26:47;;;;;;;5.57;5.00;;;;;;;;;;1741303;28;20282;-74
2023/12/08 08:27:39;;;;;;;5.65;5.15;;;;;;;;;;1741575;28;20620;-74
2023/12/08 08:28:30;;;;;;;6.13;5.28;;;;;;;;;;1741529;28;20575;-74
2023/12/08 08:29:22;;;;;;;7.28;5.43;;;;;;;;;;1741694;28;20217;-74
2023/12/08 08:30:13;;;;;;;5.70;5.10;;;;;;;;;;1734807;28;20200;-74
2023/12/08 08:31:07;;;;;;;5.32;4.82;;;;;;;;;;1734729;28;20672;-73
2023/12/08 08:31:58;;;;;;;4.90;4.40;;;;;;;;;;1740593;28;20203;-73
2023/12/08 08:32:50;;;;;;;5.85;4.97;;;;;;;;;;1741516;28;20223;-73
2023/12/08 08:33:41;;;;;;;5.70;5.10;;;;;;;;;;1741597;28;20210;-73
2023/12/08 08:34:32;;;;;;;6.63;5.30;;;;;;;;;;1741626;28;20202;-74
2023/12/08 08:35:26;;;;;;;6.32;4.70;;;;;;;;;;1741528;28;20205;-73
2023/12/08 08:36:17;;;;;;;5.05;4.65;;;;;;;;;;1741328;28;20663;-73
2023/12/08 08:37:08;;;;;;;5.57;5.07;;;;;;;;;;1741050;28;20195;-73
2023/12/08 08:38:00;;;;;;;5.35;4.85;;;;;;;;;;1741598;28;20257;-74
2023/12/08 08:38:51;;;;;;;6.70;5.63;;;;;;;;;;1741602;28;20230;-74
2023/12/08 08:39:42;;;;;;;5.55;5.00;;;;;;;;;;1741569;28;20556;-74
2023/12/08 08:40:34;;;;;;;5.38;4.70;;;;;;;;;;1741561;28;20202;-74
2023/12/08 08:41:26;;;;;;;5.30;4.78;;;;;;;;;;1741557;28;20568;-73
2023/12/08 08:42:17;;;;;;;5.25;4.80;;;;;;;;;;1741565;28;20659;-74
2023/12/08 08:43:09;;;;;;;6.30;5.10;;;;;;;;;;1741533;28;20195;-73
2023/12/08 08:44:00;;;;;;;5.00;4.60;;;;;;;;;;1741631;28;20211;-73
2023/12/08 08:44:52;;;;;;;4.85;4.35;;;;;;;;;;1741418;28;20203;-73
2023/12/08 08:45:44;;;;;;;5.30;4.80;;;;;;;;;;1741517;28;20199;-73
2023/12/08 08:46:35;;;;;;;7.72;5.15;;;;;;;;;;1741190;28;20214;-73
2023/12/08 08:47:26;;;;;;;5.60;5.10;;;;;;;;;;1741517;28;20203;-74
2023/12/08 08:48:18;;;;;;;5.13;4.63;;;;;;;;;;1741447;28;20226;-74
2023/12/08 08:49:09;;;;;;;6.20;4.60;;;;;;;;;;1741470;28;20210;-73
2023/12/08 08:50:01;;;;;;;5.30;4.80;;;;;;;;;;1741582;28;20278;-72
2023/12/08 08:50:54;;;;;;;5.25;4.75;;;;;;;;;;1741513;28;20690;-73
2023/12/08 08:51:46;;;;;;;5.03;4.63;;;;;;;;;;1741533;28;20222;-73
2023/12/08 08:52:37;;;;;;;4.97;4.50;;;;;;;;;;1741378;28;20218;-73
2023/12/08 08:53:29;;;;;;;5.43;4.88;;;;;;;;;;1741131;28;20278;-73
2023/12/08 08:54:21;;;;;;;5.45;4.95;;;;;;;;;;1741527;28;20908;-74
2023/12/08 08:55:12;;;;;;;5.38;4.88;;;;;;;;;;1741542;28;20787;-73
2023/12/08 08:56:05;;;;;;;5.00;4.60;;;;;;;;;;1741508;28;20249;-73
2023/12/08 08:56:56;;;;;;;5.18;4.78;;;;;;;;;;1741122;28;20207;-73
2023/12/08 08:57:48;;;;;;;5.28;4.78;;;;;;;;;;1741470;28;20206;-74
2023/12/08 08:58:39;;;;;;;5.50;5.00;;;;;;;;;;1741415;28;20230;-73
2023/12/08 08:59:31;;;;;;;5.40;4.90;;;;;;;;;;1741380;28;20203;-74
2023/12/08 09:00:25;;;;;;;5.00;4.60;;;;;;;;;;1741353;28;20302;-74
2023/12/08 09:01:16;;;;;;;5.10;4.60;;;;;;;;;;1741437;28;20227;-74
2023/12/08 09:02:08;;;;;;;5.82;4.28;;;;;;;;;;1741412;28;20203;-73
2023/12/08 09:03:01;;;;;;;5.20;4.28;;;;;;;;;;1741462;28;20196;-73
2023/12/08 09:03:52;;;;;;;5.13;4.47;;;;;;;;;;1741351;28;20282;-74
2023/12/08 09:04:44;;;;;;;5.60;4.50;;;;;;;;;;1741334;28;20200;-73
2023/12/08 09:05:40;;;;;;;5.38;4.70;;;;;;;;;;1741381;28;20206;-73
2023/12/08 09:06:34;;;;;;;4.57;4.18;;;;;;;;;;1741018;28;20203;-73
2023/12/08 09:07:25;;;;;;;5.50;5.00;;;;;;;;;;1741291;28;20199;-74
2023/12/08 09:08:17;;;;;;;4.68;4.28;;;;;;;;;;1741337;28;20579;-73
2023/12/08 09:09:09;;;;;;;5.40;4.90;;;;;;;;;;1741150;28;20265;-73
2023/12/08 09:10:00;;;;;;;5.63;5.13;;;;;;;;;;1741351;28;20203;-73
2023/12/08 09:10:52;;;;;;;5.82;4.32;;;;;;;;;;1741344;28;20203;-73
2023/12/08 09:11:44;;;;;;;4.65;4.25;;;;;;;;;;1741294;28;20207;-73
2023/12/08 09:12:36;;;;;;;6.20;4.95;;;;;;;;;;1741340;28;20207;-74
2023/12/08 09:13:27;;;;;;;5.65;5.10;;;;;;;;;;1741182;28;20219;-73
2023/12/08 09:14:19;;;;;;;6.68;5.00;;;;;;;;;;1741352;28;20203;-73
2023/12/08 09:15:11;;;;;;;4.68;4.28;;;;;;;;;;1741259;28;20200;-73
2023/12/08 09:16:03;;;;;;;4.85;4.40;;;;;;;;;;1741293;28;20223;-73
2023/12/08 09:16:55;;;;;;;5.10;4.60;;;;;;;;;;1741024;28;20199;-74
2023/12/08 09:17:46;;;;;;;5.10;4.60;;;;;;;;;;1741320;28;20214;-73
2023/12/08 09:18:38;;;;;;;4.90;4.50;;;;;;;;;;1741259;28;20222;-73
2023/12/08 09:19:30;;;;;;;4.95;4.45;;;;;;;;;;1741194;28;20227;-74
2023/12/08 09:20:22;;;;;;;5.43;4.68;;;;;;;;;;1741379;28;20199;-73
2023/12/08 09:21:14;;;;;;;5.45;4.93;;;;;;;;;;1741195;28;20294;-72
2023/12/08 09:22:06;;;;;;;5.05;4.50;;;;;;;;;;1741313;28;20198;-73
2023/12/08 09:22:58;;;;;;;4.95;4.45;;;;;;;;;;1741059;28;20195;-74
2023/12/08 09:23:49;;;;;;;4.75;4.25;;;;;;;;;;1741284;28;20218;-73
2023/12/08 09:24:40;;;;;;;5.50;5.00;;;;;;;;;;1741332;28;20195;-74
2023/12/08 09:25:32;;;;;;;12.93;8.43;;;;;;;;;;1741359;28;20667;-73
2023/12/08 09:26:23;;;;;;;9.63;8.63;;;;;;;;;;1741029;28;20203;-74
2023/12/08 09:27:15;;;;;;;7.32;6.53;;;;;;;;;;1741141;28;20207;-73
2023/12/08 09:28:07;;;;;;;5.45;4.93;;;;;;;;;;1741255;28;20203;-74
2023/12/08 09:28:59;;;;;;;6.15;4.93;;;;;;;;;;1741275;28;20191;-73
2023/12/08 09:29:50;;;;;;;5.47;4.97;;;;;;;;;;1741206;28;20214;-73
2023/12/08 09:30:42;;;;;;;5.20;4.70;;;;;;;;;;1741166;28;20252;-73
2023/12/08 09:31:34;;;;;;;6.13;5.50;;;;;;;;;;1741220;28;20294;-73
2023/12/08 09:32:25;;;;;;;5.50;4.97;;;;;;;;;;1741231;28;20206;-73
2023/12/08 09:33:17;;;;;;;5.70;5.20;;;;;;;;;;1741104;28;20223;-73
2023/12/08 09:34:08;;;;;;;5.78;4.85;;;;;;;;;;1741203;28;20222;-73
2023/12/08 09:34:59;;;;;;;5.78;5.00;;;;;;;;;;1741267;28;20195;-73
2023/12/08 09:35:51;;;;;;;5.35;4.90;;;;;;;;;;1741139;28;20206;-73
2023/12/08 09:36:42;;;;;;;4.82;4.32;;;;;;;;;;1740520;28;20207;-73
2023/12/08 09:37:35;;;;;;;5.38;4.88;;;;;;;;;;1740926;28;20278;-73
2023/12/08 09:38:27;;;;;;;5.18;4.60;;;;;;;;;;1740815;28;20262;-73
2023/12/08 09:39:19;;;;;;;5.75;5.25;;;;;;;;;;1741224;28;20714;-74
2023/12/08 09:40:11;;;;;;;5.65;4.72;;;;;;;;;;1741202;28;20199;-73
2023/12/08 09:41:04;;;;;;;5.95;4.80;;;;;;;;;;1741201;28;20620;-73
2023/12/08 09:41:58;;;;;;;5.57;4.80;;;;;;;;;;1741185;28;20232;-73
2023/12/08 09:42:52;;;;;;;4.22;3.83;;;;;;;;;;1741101;28;20295;-74
2023/12/08 09:43:49;;;;;;;5.07;4.63;;;;;;;;;;1741020;28;20199;-73
2023/12/08 09:44:40;;;;;;;5.03;4.50;;;;;;;;;;1741157;28;20218;-74
2023/12/08 09:45:32;;;;;;;4.82;4.43;;;;;;;;;;1741127;28;20284;-73
2023/12/08 09:46:23;;;;;;;4.47;4.05;;;;;;;;;;1740914;28;20667;-73
2023/12/08 09:47:17;;;;;;;5.03;4.50;;;;;;;;;;1741033;28;20660;-74
2023/12/08 09:48:09;;;;;;;4.97;4.53;;;;;;;;;;1741084;28;20623;-74
2023/12/08 09:49:01;;;;;;;5.10;4.60;;;;;;;;;;1741219;28;20195;-74
2023/12/08 09:49:52;;;;;;;5.20;4.15;;;;;;;;;;1741134;28;20624;-73
2023/12/08 09:50:44;;;;;;;5.20;4.70;;;;;;;;;;1741100;28;20726;-73
2023/12/08 09:51:35;;;;;;;5.47;4.70;;;;;;;;;;1741175;28;20211;-74
2023/12/08 09:52:27;;;;;;;5.55;5.07;;;;;;;;;;1740804;28;20551;-74
2023/12/08 09:53:21;;;;;;;5.38;4.53;;;;;;;;;;1740908;28;20219;-73
2023/12/08 09:54:12;;;;;;;4.70;4.30;;;;;;;;;;1741170;28;20214;-74
2023/12/08 09:55:04;;;;;;;5.40;4.90;;;;;;;;;;1740966;28;20195;-73
2023/12/08 09:55:56;;;;;;;5.10;4.57;;;;;;;;;;1741059;28;20230;-73
2023/12/08 09:56:48;;;;;;;4.80;4.30;;;;;;;;;;1740738;28;20214;-74
2023/12/08 09:57:43;;;;;;;4.57;4.18;;;;;;;;;;1741129;28;20202;-73
2023/12/08 09:58:36;;;;;;;4.15;3.75;;;;;;;;;;1740936;28;20219;-73
2023/12/08 09:59:29;;;;;;;4.82;4.32;;;;;;;;;;1741004;28;20671;-74
2023/12/08 10:00:22;;;;;;;6.35;4.60;;;;;;;;;;1741137;28;20199;-73
2023/12/08 10:01:13;;;;;;;5.45;4.95;;;;;;;;;;1741055;28;20655;-74
2023/12/08 10:02:07;;;;;;;4.90;4.40;;;;;;;;;;1741071;28;20203;-74
2023/12/08 10:02:59;;;;;;;5.65;5.15;;;;;;;;;;1741023;28;20250;-74
2023/12/08 10:03:50;;;;;;;5.15;4.65;;;;;;;;;;1741017;28;20298;-74
2023/12/08 10:04:42;;;;;;;5.28;4.68;;;;;;;;;;1741144;28;20194;-74
2023/12/08 10:05:33;;;;;;;4.72;4.20;;;;;;;;;;1741068;28;20199;-74
2023/12/08 10:06:28;;;;;;;5.78;5.28;;;;;;;;;;1740880;28;20211;-74
2023/12/08 10:07:20;;;;;;;5.45;4.95;;;;;;;;;;1741077;28;20634;-73
2023/12/08 10:08:11;;;;;;;5.45;4.90;;;;;;;;;;1741036;28;20223;-73
2023/12/08 10:09:06;;;;;;;5.20;4.70;;;;;;;;;;1740816;28;20587;-73
2023/12/08 10:09:57;;;;;;;5.30;4.80;;;;;;;;;;1740808;28;20230;-73
2023/12/08 10:10:48;;;;;;;4.45;4.05;;;;;;;;;;1740949;28;20199;-73
2023/12/08 10:11:41;;;;;;;4.75;4.35;;;;;;;;;;1741025;28;20199;-73
2023/12/08 10:12:32;;;;;;;6.13;5.10;;;;;;;;;;1740984;28;20203;-74
2023/12/08 10:13:24;;;;;;;4.60;4.20;;;;;;;;;;1740933;28;20226;-73
2023/12/08 10:14:16;;;;;;;5.00;4.50;;;;;;;;;;1740953;28;20210;-73
2023/12/08 10:15:09;;;;;;;4.82;4.40;;;;;;;;;;1741049;28;20226;-73
2023/12/08 10:16:01;;;;;;;4.97;4.55;;;;;;;;;;1741018;28;20202;-74
2023/12/08 10:16:52;;;;;;;5.93;5.43;;;;;;;;;;1740592;28;20207;-73
2023/12/08 10:17:47;;;;;;;4.43;4.10;;;;;;;;;;1741000;28;20207;-73
2023/12/08 10:18:39;;;;;;;4.60;4.20;;;;;;;;;;1740933;28;20715;-74
2023/12/08 10:19:30;;;;;;;5.05;4.55;;;;;;;;;;1741030;28;20209;-74
2023/12/08 10:20:22;;;;;;;4.60;4.20;;;;;;;;;;1741026;28;20203;-73
2023/12/08 10:21:15;;;;;;;4.70;4.30;;;;;;;;;;1741029;28;20229;-74
2023/12/08 10:22:06;;;;;;;5.55;4.53;;;;;;;;;;1741004;28;20347;-73
2023/12/08 10:22:57;;;;;;;4.75;4.32;;;;;;;;;;1740984;28;20195;-74
2023/12/08 10:23:59;;;;;;;5.32;4.82;;;;;;;;;;1740957;28;20214;-74
2023/12/08 10:24:52;;;;;;;7.25;3.92;;;;;;;;;;1741032;28;20207;-73
2023/12/08 10:25:44;;;;;;;4.80;4.40;;;;;;;;;;1740992;28;20690;-74
2023/12/08 10:26:35;;;;;;;5.00;4.10;;;;;;;;;;1740264;28;20579;-74
2023/12/08 10:27:26;;;;;;;5.40;4.43;;;;;;;;;;1740951;28;20199;-74
2023/12/08 10:28:22;;;;;;;4.45;4.05;;;;;;;;;;1740813;28;20254;-73
2023/12/08 10:29:13;;;;;;;4.38;3.95;;;;;;;;;;1741014;28;20207;-74
2023/12/08 10:30:05;;;;;;;22.50;20.30;;;;;;;;;;1740938;28;20686;-73
2023/12/08 10:30:57;;;;;;;49.35;44.55;;;;;;;;;;1740970;28;20205;-74
2023/12/08 10:31:48;;;;;;;31.65;28.52;;;;;;;;;;1740916;28;20229;-74
2023/12/08 10:32:39;;;;;;;33.50;30.25;;;;;;;;;;1741039;28;20778;-74
2023/12/08 10:33:31;;;;;;;20.15;18.17;;;;;;;;;;1740831;28;20219;-73
2023/12/08 10:34:23;;;;;;;13.30;12.00;;;;;;;;;;1741017;28;20211;-74
2023/12/08 10:35:15;;;;;;;8.10;7.30;;;;;;;;;;1740918;28;20209;-73
2023/12/08 10:36:06;;;;;;;6.47;5.82;;;;;;;;;;1740970;28;20206;-73
2023/12/08 10:36:57;;;;;;;5.80;5.30;;;;;;;;;;1740575;28;20248;-73
2023/12/08 10:37:49;;;;;;;6.15;5.45;;;;;;;;;;1740900;28;20272;-74
2023/12/08 10:38:41;;;;;;;5.50;4.60;;;;;;;;;;1741012;28;20214;-73
2023/12/08 10:39:33;;;;;;;7.00;4.85;;;;;;;;;;1740859;28;20232;-73
2023/12/08 10:40:26;;;;;;;5.65;4.18;;;;;;;;;;1740990;28;20199;-73
2023/12/08 10:41:17;;;;;;;4.80;4.22;;;;;;;;;;1740944;28;20213;-73
2023/12/08 10:42:09;;;;;;;4.20;3.80;;;;;;;;;;1740776;28;20207;-73
2023/12/08 10:43:00;;;;;;;4.82;4.43;;;;;;;;;;1736488;28;20203;-73
2023/12/08 10:43:52;;;;;;;5.13;4.63;;;;;;;;;;1740854;28;20261;-74
2023/12/08 10:44:47;;;;;;;4.40;4.00;;;;;;;;;;1740890;28;20199;-73
2023/12/08 10:45:40;;;;;;;5.45;3.83;;;;;;;;;;1741023;28;20199;-73
2023/12/08 10:46:32;;;;;;;5.15;4.65;;;;;;;;;;1740546;28;20216;-74
2023/12/08 10:47:24;;;;;;;4.30;3.90;;;;;;;;;;1734087;28;20219;-74
2023/12/08 10:48:15;;;;;;;5.18;4.68;;;;;;;;;;1733899;28;20216;-73
2023/12/08 10:49:08;;;;;;;6.05;4.22;;;;;;;;;;1739472;28;20208;-73
2023/12/08 10:49:59;;;;;;;4.03;3.60;;;;;;;;;;1741240;28;20214;-74
2023/12/08 10:50:51;;;;;;;4.95;3.88;;;;;;;;;;1742222;28;20265;-73
2023/12/08 10:51:45;;;;;;;4.32;3.90;;;;;;;;;;1742329;28;20201;-73
2023/12/08 10:52:38;;;;;;;4.70;3.67;;;;;;;;;;1742257;28;20207;-74
2023/12/08 10:53:31;;;;;;;4.60;4.18;;;;;;;;;;1742156;28;20203;-73
2023/12/08 10:54:22;;;;;;;3.78;3.47;;;;;;;;;;1742312;28;20214;-74
2023/12/08 10:55:13;;;;;;;3.92;3.55;;;;;;;;;;1742294;28;20686;-74
2023/12/08 10:56:08;;;;;;;3.95;3.38;;;;;;;;;;1742084;28;20199;-74
2023/12/08 10:56:59;;;;;;;5.90;3.63;;;;;;;;;;1740371;28;20211;-74
2023/12/08 10:57:53;;;;;;;4.78;3.35;;;;;;;;;;1742335;28;20191;-74
2023/12/08 10:58:46;;;;;;;4.28;3.88;;;;;;;;;;1741522;28;20227;-74
2023/12/08 10:59:39;;;;;;;3.85;3.35;;;;;;;;;;1742659;28;20687;-74
2023/12/08 11:00:32;;;;;;;4.20;3.80;;;;;;;;;;1742144;28;20210;-73
2023/12/08 11:01:24;;;;;;;3.55;3.25;;;;;;;;;;1742292;28;20257;-74
2023/12/08 11:02:19;;;;;;;5.00;4.22;;;;;;;;;;1741921;28;20218;-74
2023/12/08 11:03:13;;;;;;;4.32;3.92;;;;;;;;;;1741762;28;20614;-74
2023/12/08 11:04:06;;;;;;;4.50;4.10;;;;;;;;;;1741344;28;20567;-74
2023/12/08 11:05:01;;;;;;;4.78;4.38;;;;;;;;;;1740466;28;20274;-73
2023/12/08 11:05:55;;;;;;;4.60;3.65;;;;;;;;;;1740768;28;20199;-73
2023/12/08 11:06:49;;;;;;;4.70;4.20;;;;;;;;;;1740404;28;20227;-74
2023/12/08 11:07:43;;;;;;;4.68;4.00;;;;;;;;;;1740561;28;22049;-74
2023/12/08 11:08:35;;;;;;;5.13;4.60;;;;;;;;;;1742082;28;20249;-74
2023/12/08 11:09:28;;;;;;;5.80;4.75;;;;;;;;;;1742182;28;20199;-74
2023/12/08 11:10:20;;;;;;;5.20;4.70;;;;;;;;;;1742160;28;20230;-74
2023/12/08 11:11:13;;;;;;;8.50;4.85;;;;;;;;;;1741195;28;20210;-74